sensor_id;sensor_type;location;lat;lon;timestamp;pressure;altitude;pressure_sealevel;temperature;humidity
24280;BME280;12395;42.808;23.408;2022-11-18T00:01:18;93911.41;;;7.42;100.00
24280;BME280;12395;42.808;23.408;2022-11-18T00:03:44;93909.81;;;7.41;100.00
24280;BME280;12395;42.808;23.408;2022-11-18T00:06:15;93910.63;;;7.42;100.00
24280;BME280;12395;42.808;23.408;2022-11-18T00:08:41;93902.56;;;7.30;100.00
24280;BME280;12395;42.808;23.408;2022-11-18T00:11:08;93905.03;;;7.25;100.00
24280;BME280;12395;42.808;23.408;2022-11-18T00:13:34;93919.22;;;7.24;100.00
24280;BME280;12395;42.808;23.408;2022-11-18T00:16:20;93904.06;;;7.20;100.00
24280;BME280;12395;42.808;23.408;2022-11-18T00:18:45;93904.28;;;7.18;100.00
24280;BME280;12395;42.808;23.408;2022-11-18T00:21:11;93904.63;;;7.28;100.00
24280;BME280;12395;42.808;23.408;2022-11-18T00:23:36;93908.09;;;7.22;100.00
24280;BME280;12395;42.808;23.408;2022-11-18T00:26:03;93920.22;;;7.23;100.00
24280;BME280;12395;42.808;23.408;2022-11-18T00:28:30;93906.91;;;7.18;100.00
24280;BME280;12395;42.808;23.408;2022-11-18T00:31:07;93908.94;;;7.16;100.00
24280;BME280;12395;42.808;23.408;2022-11-18T00:33:33;93908.75;;;7.11;100.00
24280;BME280;12395;42.808;23.408;2022-11-18T00:35:59;93920.69;;;7.14;100.00
24280;BME280;12395;42.808;23.408;2022-11-18T00:38:25;93909.53;;;7.18;100.00
24280;BME280;12395;42.808;23.408;2022-11-18T00:41:04;93906.31;;;7.16;100.00
24280;BME280;12395;42.808;23.408;2022-11-18T00:43:30;93897.44;;;7.04;100.00
24280;BME280;12395;42.808;23.408;2022-11-18T00:45:56;93912.00;;;7.07;100.00
24280;BME280;12395;42.808;23.408;2022-11-18T00:48:21;93918.16;;;6.94;100.00
24280;BME280;12395;42.808;23.408;2022-11-18T00:50:53;93921.03;;;6.86;100.00
24280;BME280;12395;42.808;23.408;2022-11-18T00:53:20;93907.31;;;6.71;100.00
24280;BME280;12395;42.808;23.408;2022-11-18T00:55:47;93914.59;;;6.75;100.00
24280;BME280;12395;42.808;23.408;2022-11-18T00:58:13;93908.50;;;6.81;100.00
24280;BME280;12395;42.808;23.408;2022-11-18T01:00:40;93907.06;;;6.85;100.00
24280;BME280;12395;42.808;23.408;2022-11-18T01:03:06;93917.97;;;6.82;100.00
24280;BME280;12395;42.808;23.408;2022-11-18T01:05:32;93901.63;;;6.67;100.00
24280;BME280;12395;42.808;23.408;2022-11-18T01:07:57;93908.94;;;6.59;100.00
24280;BME280;12395;42.808;23.408;2022-11-18T01:10:22;93915.25;;;6.58;100.00
24280;BME280;12395;42.808;23.408;2022-11-18T01:12:48;93909.38;;;6.62;100.00
24280;BME280;12395;42.808;23.408;2022-11-18T01:15:38;93927.38;;;6.59;100.00
24280;BME280;12395;42.808;23.408;2022-11-18T01:18:04;93925.16;;;6.56;100.00
24280;BME280;12395;42.808;23.408;2022-11-18T01:20:31;93922.31;;;6.57;100.00
24280;BME280;12395;42.808;23.408;2022-11-18T01:22:56;93924.13;;;6.63;100.00
24280;BME280;12395;42.808;23.408;2022-11-18T01:25:22;93916.03;;;6.65;100.00
24280;BME280;12395;42.808;23.408;2022-11-18T01:27:47;93919.69;;;6.64;100.00
24280;BME280;12395;42.808;23.408;2022-11-18T01:30:13;93917.88;;;6.58;100.00
24280;BME280;12395;42.808;23.408;2022-11-18T01:32:41;93916.25;;;6.57;100.00
24280;BME280;12395;42.808;23.408;2022-11-18T01:35:06;93917.06;;;6.57;100.00
24280;BME280;12395;42.808;23.408;2022-11-18T01:37:32;93905.34;;;6.47;100.00
24280;BME280;12395;42.808;23.408;2022-11-18T01:39:57;93912.66;;;6.45;100.00
24280;BME280;12395;42.808;23.408;2022-11-18T01:42:23;93907.78;;;6.42;100.00
24280;BME280;12395;42.808;23.408;2022-11-18T01:45:04;93912.03;;;6.43;100.00
24280;BME280;12395;42.808;23.408;2022-11-18T01:47:43;93911.06;;;6.37;100.00
24280;BME280;12395;42.808;23.408;2022-11-18T01:50:09;93908.22;;;6.32;100.00
24280;BME280;12395;42.808;23.408;2022-11-18T01:52:38;93898.72;;;6.24;100.00
24280;BME280;12395;42.808;23.408;2022-11-18T01:55:12;93899.75;;;6.30;100.00
24280;BME280;12395;42.808;23.408;2022-11-18T01:57:40;93888.81;;;6.27;100.00
24280;BME280;12395;42.808;23.408;2022-11-18T02:00:07;93894.88;;;6.20;100.00
24280;BME280;12395;42.808;23.408;2022-11-18T02:02:34;93901.78;;;6.21;100.00
24280;BME280;12395;42.808;23.408;2022-11-18T02:05:02;93898.13;;;6.22;100.00
24280;BME280;12395;42.808;23.408;2022-11-18T02:07:28;93896.09;;;6.24;100.00
24280;BME280;12395;42.808;23.408;2022-11-18T02:09:55;93893.44;;;6.31;100.00
24280;BME280;12395;42.808;23.408;2022-11-18T02:12:22;93900.50;;;6.44;100.00
24280;BME280;12395;42.808;23.408;2022-11-18T02:14:48;93903.91;;;6.51;100.00
24280;BME280;12395;42.808;23.408;2022-11-18T02:20:41;93916.66;;;6.67;100.00
24280;BME280;12395;42.808;23.408;2022-11-18T02:23:19;93912.56;;;6.71;100.00
24280;BME280;12395;42.808;23.408;2022-11-18T02:26:03;93918.06;;;6.63;100.00
24280;BME280;12395;42.808;23.408;2022-11-18T02:34:05;93905.75;;;6.44;100.00
24280;BME280;12395;42.808;23.408;2022-11-18T02:36:54;93904.75;;;6.45;100.00
24280;BME280;12395;42.808;23.408;2022-11-18T02:39:56;93905.97;;;6.42;100.00
24280;BME280;12395;42.808;23.408;2022-11-18T02:42:25;93903.16;;;6.37;100.00
24280;BME280;12395;42.808;23.408;2022-11-18T02:44:55;93904.56;;;6.40;100.00
24280;BME280;12395;42.808;23.408;2022-11-18T02:47:24;93897.09;;;6.37;100.00
24280;BME280;12395;42.808;23.408;2022-11-18T02:49:55;93882.75;;;6.19;100.00
24280;BME280;12395;42.808;23.408;2022-11-18T02:52:23;93897.94;;;6.24;100.00
24280;BME280;12395;42.808;23.408;2022-11-18T02:54:50;93901.34;;;6.24;100.00
24280;BME280;12395;42.808;23.408;2022-11-18T02:57:18;93885.81;;;6.10;100.00
24280;BME280;12395;42.808;23.408;2022-11-18T02:59:44;93926.03;;;6.23;100.00
24280;BME280;12395;42.808;23.408;2022-11-18T03:02:15;93915.13;;;6.20;100.00
24280;BME280;12395;42.808;23.408;2022-11-18T03:04:41;93922.81;;;6.08;100.00
24280;BME280;12395;42.808;23.408;2022-11-18T03:07:31;93921.59;;;6.17;100.00
24280;BME280;12395;42.808;23.408;2022-11-18T03:09:59;93904.63;;;6.13;100.00
24280;BME280;12395;42.808;23.408;2022-11-18T03:12:57;93908.63;;;6.22;100.00
24280;BME280;12395;42.808;23.408;2022-11-18T03:15:40;93908.03;;;6.20;100.00
24280;BME280;12395;42.808;23.408;2022-11-18T03:21:20;93896.28;;;6.30;100.00
24280;BME280;12395;42.808;23.408;2022-11-18T03:23:54;93897.69;;;6.39;100.00
24280;BME280;12395;42.808;23.408;2022-11-18T03:26:31;93888.38;;;6.43;100.00
24280;BME280;12395;42.808;23.408;2022-11-18T03:29:22;93901.06;;;6.59;100.00
24280;BME280;12395;42.808;23.408;2022-11-18T03:31:55;93897.81;;;6.63;100.00
24280;BME280;12395;42.808;23.408;2022-11-18T03:34:44;93904.53;;;6.53;100.00
24280;BME280;12395;42.808;23.408;2022-11-18T03:37:13;93895.03;;;6.45;100.00
24280;BME280;12395;42.808;23.408;2022-11-18T03:39:44;93906.19;;;6.41;100.00
24280;BME280;12395;42.808;23.408;2022-11-18T03:42:24;93886.16;;;6.27;100.00
24280;BME280;12395;42.808;23.408;2022-11-18T03:44:56;93887.81;;;6.28;100.00
24280;BME280;12395;42.808;23.408;2022-11-18T03:47:31;93893.28;;;6.26;100.00
24280;BME280;12395;42.808;23.408;2022-11-18T03:50:03;93889.84;;;6.19;100.00
24280;BME280;12395;42.808;23.408;2022-11-18T03:52:32;93888.03;;;6.19;100.00
24280;BME280;12395;42.808;23.408;2022-11-18T03:55:06;93883.75;;;6.18;100.00
24280;BME280;12395;42.808;23.408;2022-11-18T03:57:45;93876.31;;;6.15;100.00
24280;BME280;12395;42.808;23.408;2022-11-18T04:00:15;93871.44;;;6.12;100.00
24280;BME280;12395;42.808;23.408;2022-11-18T04:02:42;93893.09;;;6.08;100.00
24280;BME280;12395;42.808;23.408;2022-11-18T04:05:11;93882.56;;;6.01;100.00
24280;BME280;12395;42.808;23.408;2022-11-18T04:10:19;93892.09;;;6.15;100.00
24280;BME280;12395;42.808;23.408;2022-11-18T04:12:48;93891.47;;;6.13;100.00
24280;BME280;12395;42.808;23.408;2022-11-18T04:15:15;93892.69;;;6.17;100.00
24280;BME280;12395;42.808;23.408;2022-11-18T04:17:42;93898.94;;;6.16;100.00
24280;BME280;12395;42.808;23.408;2022-11-18T04:20:19;93903.59;;;6.08;100.00
24280;BME280;12395;42.808;23.408;2022-11-18T04:22:44;93893.69;;;6.03;100.00
24280;BME280;12395;42.808;23.408;2022-11-18T04:25:10;93901.19;;;6.00;100.00
24280;BME280;12395;42.808;23.408;2022-11-18T04:27:36;93893.91;;;5.95;100.00
24280;BME280;12395;42.808;23.408;2022-11-18T04:30:01;93903.81;;;5.93;100.00
24280;BME280;12395;42.808;23.408;2022-11-18T04:32:27;93888.25;;;5.79;100.00
24280;BME280;12395;42.808;23.408;2022-11-18T04:34:52;93905.03;;;5.84;100.00
24280;BME280;12395;42.808;23.408;2022-11-18T04:37:18;93899.16;;;5.76;100.00
24280;BME280;12395;42.808;23.408;2022-11-18T04:39:43;93890.66;;;5.54;100.00
24280;BME280;12395;42.808;23.408;2022-11-18T04:42:08;93896.13;;;5.53;100.00
24280;BME280;12395;42.808;23.408;2022-11-18T04:44:34;93908.66;;;5.64;100.00
24280;BME280;12395;42.808;23.408;2022-11-18T04:47:02;93898.13;;;5.57;100.00
24280;BME280;12395;42.808;23.408;2022-11-18T04:49:28;93899.56;;;5.53;100.00
24280;BME280;12395;42.808;23.408;2022-11-18T04:51:54;93911.47;;;5.49;100.00
24280;BME280;12395;42.808;23.408;2022-11-18T04:54:21;93924.41;;;5.57;100.00
24280;BME280;12395;42.808;23.408;2022-11-18T04:56:47;93910.88;;;5.47;100.00
24280;BME280;12395;42.808;23.408;2022-11-18T04:59:14;93925.22;;;5.44;100.00
24280;BME280;12395;42.808;23.408;2022-11-18T05:01:39;93917.91;;;5.40;100.00
24280;BME280;12395;42.808;23.408;2022-11-18T05:04:06;93919.09;;;5.31;100.00
24280;BME280;12395;42.808;23.408;2022-11-18T05:06:33;93918.13;;;5.32;100.00
24280;BME280;12395;42.808;23.408;2022-11-18T05:08:59;93919.13;;;5.37;100.00
24280;BME280;12395;42.808;23.408;2022-11-18T05:11:26;93925.59;;;5.48;100.00
24280;BME280;12395;42.808;23.408;2022-11-18T05:14:11;93915.69;;;5.43;100.00
24280;BME280;12395;42.808;23.408;2022-11-18T05:16:36;93911.06;;;5.52;100.00
24280;BME280;12395;42.808;23.408;2022-11-18T05:19:03;93918.56;;;5.55;100.00
24280;BME280;12395;42.808;23.408;2022-11-18T05:21:29;93920.56;;;5.53;100.00
24280;BME280;12395;42.808;23.408;2022-11-18T05:23:55;93892.66;;;5.52;100.00
24280;BME280;12395;42.808;23.408;2022-11-18T05:26:20;93904.81;;;5.53;100.00
24280;BME280;12395;42.808;23.408;2022-11-18T05:28:45;93917.94;;;5.60;100.00
24280;BME280;12395;42.808;23.408;2022-11-18T05:31:13;93915.34;;;5.73;100.00
24280;BME280;12395;42.808;23.408;2022-11-18T05:33:39;93924.03;;;5.86;100.00
24280;BME280;12395;42.808;23.408;2022-11-18T05:36:07;93894.69;;;5.63;100.00
24280;BME280;12395;42.808;23.408;2022-11-18T05:38:33;93928.91;;;5.96;100.00
24280;BME280;12395;42.808;23.408;2022-11-18T05:41:00;93932.53;;;6.01;100.00
24280;BME280;12395;42.808;23.408;2022-11-18T05:43:25;93928.47;;;6.05;100.00
24280;BME280;12395;42.808;23.408;2022-11-18T05:45:51;93920.41;;;6.00;100.00
24280;BME280;12395;42.808;23.408;2022-11-18T05:48:17;93924.03;;;6.06;100.00
24280;BME280;12395;42.808;23.408;2022-11-18T05:50:46;93931.69;;;6.20;100.00
24280;BME280;12395;42.808;23.408;2022-11-18T05:53:12;93929.06;;;6.34;100.00
24280;BME280;12395;42.808;23.408;2022-11-18T05:55:43;93925.22;;;6.36;100.00
24280;BME280;12395;42.808;23.408;2022-11-18T05:58:12;93931.06;;;6.45;100.00
24280;BME280;12395;42.808;23.408;2022-11-18T06:00:37;93925.56;;;6.53;100.00
24280;BME280;12395;42.808;23.408;2022-11-18T06:03:11;93922.13;;;6.52;100.00
24280;BME280;12395;42.808;23.408;2022-11-18T06:05:38;93930.41;;;6.69;100.00
24280;BME280;12395;42.808;23.408;2022-11-18T06:08:03;93923.91;;;6.71;100.00
24280;BME280;12395;42.808;23.408;2022-11-18T06:10:31;93924.91;;;6.77;100.00
24280;BME280;12395;42.808;23.408;2022-11-18T06:13:04;93903.25;;;6.68;100.00
24280;BME280;12395;42.808;23.408;2022-11-18T06:15:35;93936.59;;;6.94;100.00
24280;BME280;12395;42.808;23.408;2022-11-18T06:18:06;93925.84;;;6.89;100.00
24280;BME280;12395;42.808;23.408;2022-11-18T06:20:35;93924.41;;;6.93;100.00
24280;BME280;12395;42.808;23.408;2022-11-18T06:23:02;93925.44;;;6.98;100.00
24280;BME280;12395;42.808;23.408;2022-11-18T06:25:28;93905.59;;;6.96;100.00
24280;BME280;12395;42.808;23.408;2022-11-18T06:27:56;93921.31;;;7.09;100.00
24280;BME280;12395;42.808;23.408;2022-11-18T06:30:23;93923.31;;;7.20;100.00
24280;BME280;12395;42.808;23.408;2022-11-18T06:32:49;93921.00;;;7.30;100.00
24280;BME280;12395;42.808;23.408;2022-11-18T06:35:14;93926.84;;;7.39;100.00
24280;BME280;12395;42.808;23.408;2022-11-18T06:37:39;93922.38;;;7.39;100.00
24280;BME280;12395;42.808;23.408;2022-11-18T06:40:05;93915.03;;;7.48;100.00
24280;BME280;12395;42.808;23.408;2022-11-18T06:42:31;93920.84;;;7.56;100.00
24280;BME280;12395;42.808;23.408;2022-11-18T06:45:15;93901.06;;;7.47;100.00
24280;BME280;12395;42.808;23.408;2022-11-18T06:47:40;93922.22;;;7.65;100.00
24280;BME280;12395;42.808;23.408;2022-11-18T06:50:06;93923.56;;;7.74;100.00
24280;BME280;12395;42.808;23.408;2022-11-18T06:52:31;93916.47;;;7.75;100.00
24280;BME280;12395;42.808;23.408;2022-11-18T06:54:57;93905.91;;;7.75;100.00
24280;BME280;12395;42.808;23.408;2022-11-18T06:57:23;93896.19;;;7.75;100.00
24280;BME280;12395;42.808;23.408;2022-11-18T06:59:49;93901.88;;;7.72;100.00
24280;BME280;12395;42.808;23.408;2022-11-18T07:02:14;93898.50;;;7.65;100.00
24280;BME280;12395;42.808;23.408;2022-11-18T07:04:43;93906.34;;;7.72;100.00
24280;BME280;12395;42.808;23.408;2022-11-18T07:07:08;93900.66;;;7.75;100.00
24280;BME280;12395;42.808;23.408;2022-11-18T07:09:35;93901.19;;;7.84;100.00
24280;BME280;12395;42.808;23.408;2022-11-18T07:12:01;93900.31;;;7.90;100.00
24280;BME280;12395;42.808;23.408;2022-11-18T07:14:27;93906.09;;;8.05;100.00
24280;BME280;12395;42.808;23.408;2022-11-18T07:16:52;93915.34;;;8.14;100.00
24280;BME280;12395;42.808;23.408;2022-11-18T07:19:17;93918.91;;;8.26;100.00
24280;BME280;12395;42.808;23.408;2022-11-18T07:21:43;93901.44;;;8.25;100.00
24280;BME280;12395;42.808;23.408;2022-11-18T07:24:11;93895.69;;;8.34;100.00
24280;BME280;12395;42.808;23.408;2022-11-18T07:26:37;93900.03;;;8.47;100.00
24280;BME280;12395;42.808;23.408;2022-11-18T07:29:03;93902.81;;;8.52;100.00
24280;BME280;12395;42.808;23.408;2022-11-18T07:31:28;93909.44;;;8.61;100.00
24280;BME280;12395;42.808;23.408;2022-11-18T07:33:54;93900.22;;;8.70;100.00
24280;BME280;12395;42.808;23.408;2022-11-18T07:36:22;93892.41;;;8.75;100.00
24280;BME280;12395;42.808;23.408;2022-11-18T07:38:47;93901.81;;;8.89;100.00
24280;BME280;12395;42.808;23.408;2022-11-18T07:41:15;93895.41;;;8.97;100.00
24280;BME280;12395;42.808;23.408;2022-11-18T07:43:41;93890.06;;;9.03;100.00
24280;BME280;12395;42.808;23.408;2022-11-18T07:48:44;93916.38;;;9.10;100.00
24280;BME280;12395;42.808;23.408;2022-11-18T07:51:11;93909.94;;;9.06;100.00
24280;BME280;12395;42.808;23.408;2022-11-18T07:53:37;93879.88;;;8.89;100.00
24280;BME280;12395;42.808;23.408;2022-11-18T07:56:03;93904.31;;;9.02;100.00
24280;BME280;12395;42.808;23.408;2022-11-18T07:58:29;93904.66;;;9.06;100.00
24280;BME280;12395;42.808;23.408;2022-11-18T08:00:55;93902.28;;;9.16;100.00
24280;BME280;12395;42.808;23.408;2022-11-18T08:03:27;93916.06;;;9.36;100.00
24280;BME280;12395;42.808;23.408;2022-11-18T08:06:04;93897.88;;;9.28;100.00
24280;BME280;12395;42.808;23.408;2022-11-18T08:08:29;93922.34;;;9.53;100.00
24280;BME280;12395;42.808;23.408;2022-11-18T08:10:56;93906.81;;;9.57;100.00
24280;BME280;12395;42.808;23.408;2022-11-18T08:13:23;93895.69;;;9.66;100.00
24280;BME280;12395;42.808;23.408;2022-11-18T08:15:48;93908.50;;;9.81;100.00
24280;BME280;12395;42.808;23.408;2022-11-18T08:18:14;93892.97;;;9.84;100.00
24280;BME280;12395;42.808;23.408;2022-11-18T08:20:39;93878.38;;;9.93;100.00
24280;BME280;12395;42.808;23.408;2022-11-18T08:23:05;93874.38;;;10.02;100.00
24280;BME280;12395;42.808;23.408;2022-11-18T08:25:30;93885.94;;;10.20;100.00
24280;BME280;12395;42.808;23.408;2022-11-18T08:27:56;93878.91;;;10.25;100.00
24280;BME280;12395;42.808;23.408;2022-11-18T08:30:21;93892.00;;;10.20;100.00
24280;BME280;12395;42.808;23.408;2022-11-18T08:32:47;93892.59;;;10.11;100.00
24280;BME280;12395;42.808;23.408;2022-11-18T08:35:12;93888.84;;;9.88;100.00
24280;BME280;12395;42.808;23.408;2022-11-18T08:37:38;93909.44;;;9.98;100.00
24280;BME280;12395;42.808;23.408;2022-11-18T08:40:04;93887.81;;;10.01;100.00
24280;BME280;12395;42.808;23.408;2022-11-18T08:42:29;93899.44;;;10.00;100.00
24280;BME280;12395;42.808;23.408;2022-11-18T08:44:54;93898.97;;;10.03;100.00
24280;BME280;12395;42.808;23.408;2022-11-18T08:47:20;93877.22;;;10.01;100.00
24280;BME280;12395;42.808;23.408;2022-11-18T08:49:45;93894.88;;;10.19;100.00
24280;BME280;12395;42.808;23.408;2022-11-18T08:52:11;93896.03;;;10.23;100.00
24280;BME280;12395;42.808;23.408;2022-11-18T08:54:37;93860.59;;;10.35;100.00
24280;BME280;12395;42.808;23.408;2022-11-18T08:57:02;93848.84;;;10.31;100.00
24280;BME280;12395;42.808;23.408;2022-11-18T08:59:27;93847.25;;;10.19;100.00
24280;BME280;12395;42.808;23.408;2022-11-18T09:01:53;93822.72;;;10.00;100.00
24280;BME280;12395;42.808;23.408;2022-11-18T09:04:18;93822.81;;;9.82;100.00
24280;BME280;12395;42.808;23.408;2022-11-18T09:06:44;93813.38;;;9.86;100.00
24280;BME280;12395;42.808;23.408;2022-11-18T09:09:09;93794.75;;;9.92;100.00
24280;BME280;12395;42.808;23.408;2022-11-18T09:11:37;93794.88;;;10.09;100.00
24280;BME280;12395;42.808;23.408;2022-11-18T09:14:02;93796.25;;;10.12;100.00
24280;BME280;12395;42.808;23.408;2022-11-18T09:16:30;93796.25;;;10.12;100.00
24280;BME280;12395;42.808;23.408;2022-11-18T09:18:56;93816.63;;;10.34;100.00
24280;BME280;12395;42.808;23.408;2022-11-18T09:21:23;93819.03;;;10.36;100.00
24280;BME280;12395;42.808;23.408;2022-11-18T09:23:48;93820.31;;;10.45;100.00
24280;BME280;12395;42.808;23.408;2022-11-18T09:26:16;93813.63;;;10.42;100.00
24280;BME280;12395;42.808;23.408;2022-11-18T09:28:42;93811.53;;;10.44;100.00
24280;BME280;12395;42.808;23.408;2022-11-18T09:31:10;93811.91;;;10.36;100.00
24280;BME280;12395;42.808;23.408;2022-11-18T09:33:36;93793.16;;;10.26;100.00
24280;BME280;12395;42.808;23.408;2022-11-18T09:36:03;93784.09;;;10.22;100.00
24280;BME280;12395;42.808;23.408;2022-11-18T09:38:29;93794.53;;;10.29;100.00
24280;BME280;12395;42.808;23.408;2022-11-18T09:49:38;93742.19;;;10.31;100.00
24280;BME280;12395;42.808;23.408;2022-11-18T09:52:11;93734.31;;;10.47;100.00
24280;BME280;12395;42.808;23.408;2022-11-18T09:54:40;93726.97;;;10.66;100.00
24280;BME280;12395;42.808;23.408;2022-11-18T09:57:21;93733.72;;;11.02;100.00
24280;BME280;12395;42.808;23.408;2022-11-18T09:59:47;93730.47;;;11.28;100.00
24280;BME280;12395;42.808;23.408;2022-11-18T10:02:50;93724.41;;;11.44;100.00
24280;BME280;12395;42.808;23.408;2022-11-18T10:05:20;93722.88;;;11.48;100.00
24280;BME280;12395;42.808;23.408;2022-11-18T10:08:02;93725.97;;;11.61;100.00
24280;BME280;12395;42.808;23.408;2022-11-18T10:16:45;93733.72;;;12.18;100.00
24280;BME280;12395;42.808;23.408;2022-11-18T10:24:24;93720.84;;;12.48;100.00
24280;BME280;12395;42.808;23.408;2022-11-18T10:26:56;93728.00;;;12.48;100.00
24280;BME280;12395;42.808;23.408;2022-11-18T10:29:22;93721.84;;;12.42;100.00
24280;BME280;12395;42.808;23.408;2022-11-18T10:31:57;93723.50;;;12.48;100.00
24280;BME280;12395;42.808;23.408;2022-11-18T10:34:25;93709.41;;;12.48;100.00
24280;BME280;12395;42.808;23.408;2022-11-18T10:37:04;93711.06;;;12.54;100.00
24280;BME280;12395;42.808;23.408;2022-11-18T10:39:29;93702.28;;;12.53;100.00
24280;BME280;12395;42.808;23.408;2022-11-18T10:42:03;93706.44;;;12.66;100.00
24280;BME280;12395;42.808;23.408;2022-11-18T10:44:37;93716.56;;;12.69;100.00
24280;BME280;12395;42.808;23.408;2022-11-18T10:47:30;93704.34;;;12.68;100.00
24280;BME280;12395;42.808;23.408;2022-11-18T10:49:59;93725.00;;;12.87;100.00
24280;BME280;12395;42.808;23.408;2022-11-18T10:52:26;93709.28;;;13.07;100.00
24280;BME280;12395;42.808;23.408;2022-11-18T10:57:36;93712.53;;;13.41;100.00
24280;BME280;12395;42.808;23.408;2022-11-18T11:00:04;93702.56;;;13.58;100.00
24280;BME280;12395;42.808;23.408;2022-11-18T11:02:39;93693.63;;;13.74;100.00
24280;BME280;12395;42.808;23.408;2022-11-18T11:05:21;93683.81;;;13.80;100.00
24280;BME280;12395;42.808;23.408;2022-11-18T11:08:22;93685.22;;;13.87;100.00
24280;BME280;12395;42.808;23.408;2022-11-18T11:10:55;93685.00;;;13.99;100.00
24280;BME280;12395;42.808;23.408;2022-11-18T11:13:22;93685.94;;;14.20;100.00
24280;BME280;12395;42.808;23.408;2022-11-18T11:15:51;93688.19;;;14.48;100.00
24280;BME280;12395;42.808;23.408;2022-11-18T11:18:20;93681.38;;;14.77;100.00
24280;BME280;12395;42.808;23.408;2022-11-18T11:21:18;93673.47;;;15.22;99.78
24280;BME280;12395;42.808;23.408;2022-11-18T11:23:45;93680.47;;;15.54;95.26
24280;BME280;12395;42.808;23.408;2022-11-18T11:35:09;93666.22;;;16.18;92.11
24280;BME280;12395;42.808;23.408;2022-11-18T11:37:45;93660.31;;;16.27;92.72
24280;BME280;12395;42.808;23.408;2022-11-18T11:40:26;93657.84;;;16.40;92.42
24280;BME280;12395;42.808;23.408;2022-11-18T11:43:07;93661.03;;;16.47;92.42
24280;BME280;12395;42.808;23.408;2022-11-18T11:51:26;93648.44;;;16.58;91.60
24280;BME280;12395;42.808;23.408;2022-11-18T11:56:54;93664.19;;;16.64;89.75
24280;BME280;12395;42.808;23.408;2022-11-18T12:05:19;93654.13;;;16.36;90.00
24280;BME280;12395;42.808;23.408;2022-11-18T12:07:56;93660.78;;;16.39;89.21
24280;BME280;12395;42.808;23.408;2022-11-18T12:20:45;93643.50;;;16.11;87.99
24280;BME280;12395;42.808;23.408;2022-11-18T12:23:30;93629.63;;;16.09;88.16
24280;BME280;12395;42.808;23.408;2022-11-18T12:26:07;93645.41;;;16.05;86.46
24280;BME280;12395;42.808;23.408;2022-11-18T12:28:41;93628.81;;;16.08;84.33
24280;BME280;12395;42.808;23.408;2022-11-18T12:36:24;93607.69;;;16.22;80.61
24280;BME280;12395;42.808;23.408;2022-11-18T12:38:50;93612.50;;;16.15;81.51
24280;BME280;12395;42.808;23.408;2022-11-18T12:44:30;93611.72;;;16.09;79.98
24280;BME280;12395;42.808;23.408;2022-11-18T12:47:15;93599.47;;;16.03;78.55
24280;BME280;12395;42.808;23.408;2022-11-18T12:54:54;93599.38;;;16.23;80.69
24280;BME280;12395;42.808;23.408;2022-11-18T12:57:27;93596.94;;;16.32;81.24
24280;BME280;12395;42.808;23.408;2022-11-18T12:59:54;93581.47;;;16.24;77.08
24280;BME280;12395;42.808;23.408;2022-11-18T13:02:27;93571.03;;;16.28;80.29
24280;BME280;12395;42.808;23.408;2022-11-18T13:05:15;93568.94;;;16.14;79.61
24280;BME280;12395;42.808;23.408;2022-11-18T13:07:53;93560.69;;;16.16;78.74
24280;BME280;12395;42.808;23.408;2022-11-18T13:13:20;93536.41;;;16.02;79.16
24280;BME280;12395;42.808;23.408;2022-11-18T13:15:47;93536.16;;;15.99;79.25
24280;BME280;12395;42.808;23.408;2022-11-18T13:18:30;93552.78;;;15.91;78.48
24280;BME280;12395;42.808;23.408;2022-11-18T13:21:00;93566.13;;;15.86;80.76
24280;BME280;12395;42.808;23.408;2022-11-18T13:23:48;93550.16;;;15.76;79.11
24280;BME280;12395;42.808;23.408;2022-11-18T13:26:21;93538.94;;;15.64;77.56
24280;BME280;12395;42.808;23.408;2022-11-18T13:31:37;93550.16;;;15.76;74.75
24280;BME280;12395;42.808;23.408;2022-11-18T13:34:24;93551.19;;;15.75;74.61
24280;BME280;12395;42.808;23.408;2022-11-18T13:36:51;93553.63;;;15.71;76.26
24280;BME280;12395;42.808;23.408;2022-11-18T13:39:28;93546.69;;;15.60;75.02
24280;BME280;12395;42.808;23.408;2022-11-18T13:42:04;93551.53;;;15.53;73.71
24280;BME280;12395;42.808;23.408;2022-11-18T13:44:35;93544.31;;;15.49;74.25
24280;BME280;12395;42.808;23.408;2022-11-18T13:47:06;93545.66;;;15.41;77.97
24280;BME280;12395;42.808;23.408;2022-11-18T13:49:41;93543.81;;;15.26;78.25
24280;BME280;12395;42.808;23.408;2022-11-18T13:52:12;93538.75;;;15.20;81.44
24280;BME280;12395;42.808;23.408;2022-11-18T13:54:40;93532.06;;;14.97;85.73
24280;BME280;12395;42.808;23.408;2022-11-18T13:57:14;93531.53;;;14.80;86.83
24280;BME280;12395;42.808;23.408;2022-11-18T13:59:41;93515.28;;;14.66;86.57
24280;BME280;12395;42.808;23.408;2022-11-18T14:02:09;93528.34;;;14.78;85.85
24280;BME280;12395;42.808;23.408;2022-11-18T14:04:37;93509.66;;;14.63;83.67
24280;BME280;12395;42.808;23.408;2022-11-18T14:09:58;93501.94;;;14.61;81.29
24280;BME280;12395;42.808;23.408;2022-11-18T14:12:27;93506.50;;;14.71;84.45
24280;BME280;12395;42.808;23.408;2022-11-18T14:15:12;93495.28;;;14.59;84.59
24280;BME280;12395;42.808;23.408;2022-11-18T14:17:48;93487.28;;;14.49;82.71
24280;BME280;12395;42.808;23.408;2022-11-18T14:20:15;93493.69;;;14.53;83.09
24280;BME280;12395;42.808;23.408;2022-11-18T14:22:42;93498.47;;;14.46;86.86
24280;BME280;12395;42.808;23.408;2022-11-18T14:25:35;93511.44;;;14.22;89.93
24280;BME280;12395;42.808;23.408;2022-11-18T14:28:29;93512.25;;;14.18;89.82
24280;BME280;12395;42.808;23.408;2022-11-18T14:31:23;93509.56;;;14.03;88.43
24280;BME280;12395;42.808;23.408;2022-11-18T14:36:39;93499.13;;;14.01;86.69
24280;BME280;12395;42.808;23.408;2022-11-18T14:39:22;93485.00;;;13.90;86.14
24280;BME280;12395;42.808;23.408;2022-11-18T14:41:48;93499.16;;;13.96;84.80